Hunt, Texas
Current Conditions -  °F | °C
As of 3:35 PM on Saturday 22 Nov 2014 (Local Time) from KERV Reporting Station
Scattered Clouds Scattered Clouds  
Wind Chill: 72°   Ceiling: Unl
Heat Index: 72°   Visibility: 10mi
Dew Point: 65°   Wind: 14mph
Humidity: 80%   Direction: 200°SSW
Pressure: 29.77"   Gusts: 18mph
Location:  30.07°N, 99.34°W
Report Text: KERV 222135Z AUTO 20012G16KT 10SM SCT023 SCT030 SCT034 22/18 A2977 RMK AO2 T02200184
Loading
Personal Weather Stations






























Interactive Weather Map New forecast layout! Learn more

10-Day Weather Forecast

Advertisements
Track Severe Weather on mobile